ANACAPA ISLAND CA US current weather conditions

sailwx.info

Wind from 039 at 2 knots gusting 4

Air temperature 11.7° C
Dewpoint 10.7° C

Last reported at 2017-Jan-18 10:23 UTC.
Time now 2017-Jan-18 12:03 UTC

Location: N 34°01' W 119°22'.
View on Google Maps.

See reports from other nearby stations

  
Tides and Currents Weather Stations Pressure Air Temp Water Temp Dewpoint Dewpoint Depression Visibility Wind Speed Wind Dir Waves Ship Positions
date/time (UTC)wind fromknots sea level pressurealtimeterstation pressurevisibilityair tempwater tempwave heightnotes
2017-Jan-18 10:23 039 2 gusting 4 11.7
2017-Jan-18 09:23 298 0 gusting 4 12.2
2017-Jan-18 08:23 12.2
2017-Jan-18 07:23 328 3 gusting 6 12.2
2017-Jan-18 06:23 291 6 gusting 9 12.8
2017-Jan-18 05:23 331 5 gusting 10 13.3
2017-Jan-18 04:23 309 6 gusting 9 13.3
2017-Jan-18 03:23 299 3 gusting 6 12.8
2017-Jan-18 02:23 243 3 gusting 9 13.3
2017-Jan-18 01:23 246 4 gusting 8 13.9
2017-Jan-18 00:23 246 4 gusting 7 14.4
2017-Jan-17 23:23 264 4 gusting 7 15.6
2017-Jan-17 22:23 280 5 gusting 7 15.6
2017-Jan-17 21:23 353 1 gusting 6 16.1
2017-Jan-17 20:23 044 2 gusting 6 16.1
2017-Jan-17 19:23 023 0 gusting 3 15.6
2017-Jan-17 18:23 349 2 gusting 5 14.4
2017-Jan-17 17:23 028 3 gusting 6 13.9
2017-Jan-17 16:23 358 3 gusting 7 13.3
2017-Jan-17 15:23 324 6 gusting 8 12.8
2017-Jan-17 14:23 333 5 gusting 9 12.8
2017-Jan-17 13:23 344 6 gusting 8 12.8
2017-Jan-17 12:23 340 6 gusting 8 12.8
2017-Jan-17 11:23 332 6 gusting 10 12.8
2017-Jan-17 10:23 333 6 gusting 10 12.8
2017-Jan-17 09:23 332 6 gusting 12 12.8
2017-Jan-17 08:23 347 8 gusting 12 12.8
2017-Jan-17 07:23 331 6 gusting 9 12.8
2017-Jan-17 06:23 338 5 gusting 13 12.8
2017-Jan-17 05:23 328 7 gusting 13 12.8
2017-Jan-17 04:23 316 7 gusting 13 12.8
2017-Jan-17 03:23 308 7 gusting 14 12.8
2017-Jan-17 02:23 307 9 gusting 14 12.8
2017-Jan-17 01:23 306 8 gusting 16 13.3
2017-Jan-17 00:23 308 10 gusting 15 13.9
2017-Jan-16 23:23 306 11 gusting 16 13.9
2017-Jan-16 22:23 282 6 gusting 12 15.0
2017-Jan-16 21:23 299 5 gusting 7 15.0
2017-Jan-16 20:23 283 3 gusting 5 15.0
2017-Jan-16 19:23 343 0 gusting 4 15.0
2017-Jan-16 18:23 039 4 gusting 7 13.3
2017-Jan-16 17:23 028 4 gusting 6 13.3
2017-Jan-16 16:23 031 5 gusting 6 12.2
2017-Jan-16 15:23 014 2 gusting 4 12.2
2017-Jan-16 14:23 327 1 gusting 3 12.2
2017-Jan-16 13:23 060 2 gusting 4 12.2
2017-Jan-16 12:23 059 3 gusting 4 12.2